createdAt,value
2018-12-26T00:00:25.684Z,5.93
2018-12-26T00:01:25.850Z,6.04
2018-12-26T00:02:25.706Z,5.88
2018-12-26T00:03:25.660Z,5.96
2018-12-26T00:04:25.692Z,5.93
2018-12-26T00:05:25.765Z,6.03
2018-12-26T00:06:25.692Z,5.98
2018-12-26T00:07:25.617Z,5.93
2018-12-26T00:08:25.635Z,6.03
2018-12-26T00:09:25.595Z,5.98
2018-12-26T00:10:25.575Z,6.03
2018-12-26T00:11:25.571Z,5.89
2018-12-26T00:12:25.602Z,6.01
2018-12-26T00:13:25.580Z,5.92
2018-12-26T00:14:25.542Z,5.98
2018-12-26T00:15:25.538Z,5.95
2018-12-26T00:16:25.518Z,5.98
2018-12-26T00:17:25.511Z,5.95
2018-12-26T00:18:25.535Z,6.00
2018-12-26T00:19:25.522Z,6.03
2018-12-26T00:20:27.361Z,6.03
2018-12-26T00:21:25.460Z,5.95
2018-12-26T00:22:25.441Z,6.00
2018-12-26T00:23:25.458Z,6.00
2018-12-26T00:24:25.427Z,5.95
2018-12-26T00:25:25.449Z,5.95
2018-12-26T00:26:25.409Z,6.10
2018-12-26T00:27:25.408Z,5.98
2018-12-26T00:28:25.394Z,6.01
2018-12-26T00:29:25.367Z,6.04
2018-12-26T00:30:25.401Z,6.03
2018-12-26T00:31:25.356Z,6.01
2018-12-26T00:32:25.347Z,6.04
2018-12-26T00:33:25.355Z,6.01
2018-12-26T00:34:25.328Z,6.06
2018-12-26T00:35:25.300Z,6.06
2018-12-26T00:36:25.339Z,6.03
2018-12-26T00:37:25.288Z,5.96
2018-12-26T00:38:25.285Z,6.04
2018-12-26T00:39:25.264Z,6.01
2018-12-26T00:40:25.264Z,5.95
2018-12-26T00:41:25.243Z,6.06
2018-12-26T00:42:25.257Z,6.04
2018-12-26T00:43:25.216Z,6.07
2018-12-26T00:44:25.214Z,6.10
2018-12-26T00:45:25.211Z,6.10
2018-12-26T00:46:25.198Z,6.06
2018-12-26T00:47:25.218Z,6.04
2018-12-26T00:48:25.173Z,6.10
2018-12-26T00:49:25.148Z,6.10
2018-12-26T00:50:25.137Z,6.04
2018-12-26T00:51:25.147Z,6.13
2018-12-26T00:52:25.135Z,6.04
2018-12-26T00:53:25.132Z,6.07
2018-12-26T00:54:25.108Z,6.14
2018-12-26T00:55:25.082Z,6.13
2018-12-26T00:56:25.075Z,6.07
2018-12-26T00:57:25.067Z,6.11
2018-12-26T00:58:25.079Z,6.07
2018-12-26T00:59:25.047Z,6.06
2018-12-26T01:00:25.044Z,6.21
2018-12-26T01:01:25.027Z,6.11
2018-12-26T01:02:25.016Z,6.18
2018-12-26T01:03:25.031Z,6.14
2018-12-26T01:04:24.983Z,6.21
2018-12-26T01:05:24.988Z,6.11
2018-12-26T01:06:24.973Z,6.18
2018-12-26T01:07:24.956Z,6.18
2018-12-26T01:08:24.938Z,6.11
2018-12-26T01:09:24.956Z,6.13
2018-12-26T01:10:24.930Z,6.21
2018-12-26T01:11:24.922Z,6.16
2018-12-26T01:12:24.909Z,6.22
2018-12-26T01:13:24.906Z,6.26
2018-12-26T01:14:24.898Z,6.14
2018-12-26T01:15:24.868Z,6.14
2018-12-26T01:16:24.849Z,6.16
2018-12-26T01:17:24.862Z,6.25
2018-12-26T01:18:24.840Z,6.19
2018-12-26T01:19:24.847Z,6.16
2018-12-26T01:20:24.851Z,6.18
2018-12-26T01:21:24.823Z,6.14
2018-12-26T01:22:24.791Z,6.16
2018-12-26T01:23:24.799Z,6.13
2018-12-26T01:24:24.815Z,6.14
2018-12-26T01:25:24.757Z,6.18
2018-12-26T01:26:24.766Z,6.13
2018-12-26T01:27:24.735Z,6.16
2018-12-26T01:28:24.799Z,6.11
2018-12-26T01:29:24.734Z,6.16
2018-12-26T01:30:24.724Z,6.11
2018-12-26T01:31:24.699Z,6.06
2018-12-26T01:32:24.697Z,6.13
2018-12-26T01:33:24.663Z,6.16
2018-12-26T01:34:24.661Z,6.25
2018-12-26T01:35:24.670Z,6.09
2018-12-26T01:36:24.657Z,6.13
2018-12-26T01:37:24.650Z,6.13
2018-12-26T01:38:24.629Z,6.11
2018-12-26T01:39:24.604Z,6.18
2018-12-26T01:40:24.588Z,6.14
2018-12-26T01:41:24.613Z,6.16
2018-12-26T01:42:24.591Z,6.13
2018-12-26T01:43:24.578Z,6.18
2018-12-26T01:44:24.559Z,6.13
2018-12-26T01:45:24.541Z,6.18
2018-12-26T01:46:24.553Z,6.09
2018-12-26T01:47:24.509Z,6.09
2018-12-26T01:48:24.515Z,6.06
2018-12-26T01:49:24.607Z,6.13
2018-12-26T01:50:24.507Z,6.06
2018-12-26T01:51:24.478Z,6.06
2018-12-26T01:52:24.471Z,6.06
2018-12-26T01:53:24.446Z,6.09
2018-12-26T01:54:24.461Z,6.11
2018-12-26T01:55:24.476Z,6.06
2018-12-26T01:56:28.112Z,6.09
2018-12-26T01:57:24.409Z,6.06
2018-12-26T01:58:24.399Z,6.06
2018-12-26T01:59:24.395Z,6.03
2018-12-26T02:00:24.399Z,6.10
2018-12-26T02:01:24.671Z,6.09
2018-12-26T02:02:24.377Z,6.07
2018-12-26T02:03:24.351Z,6.07
2018-12-26T02:04:24.332Z,6.14
2018-12-26T02:05:24.326Z,6.07
2018-12-26T02:06:24.340Z,6.10
2018-12-26T02:07:24.299Z,6.04
2018-12-26T02:08:24.290Z,6.10
2018-12-26T02:09:24.290Z,6.09
2018-12-26T02:10:24.270Z,6.13
2018-12-26T02:11:24.262Z,6.10
2018-12-26T02:12:24.264Z,6.04
2018-12-26T02:13:24.243Z,6.13
2018-12-26T02:14:24.229Z,6.16
2018-12-26T02:15:24.225Z,6.09
2018-12-26T02:16:24.233Z,6.04
2018-12-26T02:17:24.205Z,6.18
2018-12-26T02:18:24.177Z,6.09
2018-12-26T02:19:24.178Z,6.13
2018-12-26T02:20:24.155Z,6.11
2018-12-26T02:21:24.168Z,6.09
2018-12-26T02:22:24.137Z,6.11
2018-12-26T02:23:24.143Z,6.06
2018-12-26T02:24:24.155Z,6.09
2018-12-26T02:25:24.100Z,6.09
2018-12-26T02:26:24.097Z,6.10
2018-12-26T02:27:24.095Z,6.10
2018-12-26T02:28:24.075Z,6.07
2018-12-26T02:29:24.079Z,6.07
2018-12-26T02:30:24.053Z,6.09
2018-12-26T02:31:24.037Z,6.09
2018-12-26T02:32:24.022Z,6.10
2018-12-26T02:33:24.007Z,6.09
2018-12-26T02:34:24.054Z,6.11
2018-12-26T02:35:23.995Z,6.11
2018-12-26T02:36:24.000Z,6.11
2018-12-26T02:37:23.964Z,6.09
2018-12-26T02:38:23.955Z,6.04
2018-12-26T02:39:23.972Z,6.07
2018-12-26T02:40:23.957Z,6.07
2018-12-26T02:41:23.931Z,6.10
2018-12-26T02:42:23.925Z,6.13
2018-12-26T02:43:23.901Z,6.10
2018-12-26T02:44:23.894Z,6.07
2018-12-26T02:45:23.888Z,6.01
2018-12-26T02:46:23.896Z,6.11
2018-12-26T02:47:23.865Z,6.10
2018-12-26T02:48:23.862Z,6.11
2018-12-26T02:49:23.843Z,6.09
2018-12-26T02:50:23.826Z,6.09
2018-12-26T02:51:23.823Z,6.09
2018-12-26T02:52:23.811Z,6.10
2018-12-26T02:53:23.798Z,6.07
2018-12-26T02:54:23.793Z,6.11
2018-12-26T02:55:23.808Z,6.09
2018-12-26T02:56:23.768Z,6.09
2018-12-26T02:57:23.745Z,6.11
2018-12-26T02:58:23.738Z,6.04
2018-12-26T02:59:23.733Z,6.07
2018-12-26T03:00:23.758Z,6.09
2018-12-26T03:01:23.716Z,6.10
2018-12-26T03:02:23.702Z,6.06
2018-12-26T03:03:23.682Z,6.06
2018-12-26T03:04:23.671Z,6.07
2018-12-26T03:05:23.675Z,6.07
2018-12-26T03:06:23.657Z,6.07
2018-12-26T03:07:24.169Z,6.04
2018-12-26T03:08:23.635Z,6.09
2018-12-26T03:09:23.623Z,6.07
2018-12-26T03:10:23.612Z,6.01
2018-12-26T03:11:23.598Z,5.98
2018-12-26T03:12:23.591Z,6.04
2018-12-26T03:13:23.626Z,6.07
2018-12-26T03:14:23.567Z,6.06
2018-12-26T03:15:23.555Z,6.04
2018-12-26T03:16:23.542Z,6.09
2018-12-26T03:17:23.537Z,6.00
2018-12-26T03:18:23.542Z,6.06
2018-12-26T03:19:23.511Z,6.06
2018-12-26T03:20:23.510Z,6.04
2018-12-26T03:21:23.493Z,6.03
2018-12-26T03:22:23.477Z,6.09
2018-12-26T03:23:23.488Z,6.04
2018-12-26T03:24:23.450Z,5.98
2018-12-26T03:25:23.443Z,6.04
2018-12-26T03:26:23.448Z,6.03
2018-12-26T03:27:23.443Z,6.07
2018-12-26T03:28:23.420Z,6.04
2018-12-26T03:29:23.429Z,6.06
2018-12-26T03:30:23.385Z,6.04
2018-12-26T03:31:23.384Z,6.06
2018-12-26T03:32:23.394Z,6.04
2018-12-26T03:33:23.351Z,5.96
2018-12-26T03:34:23.343Z,6.06
2018-12-26T03:35:23.353Z,6.04
2018-12-26T03:36:23.318Z,6.06
2018-12-26T03:37:23.312Z,6.09
2018-12-26T03:38:23.318Z,6.07
2018-12-26T03:39:23.293Z,6.06
2018-12-26T03:40:23.301Z,6.10
2018-12-26T03:41:23.298Z,6.07
2018-12-26T03:42:23.261Z,6.04
2018-12-26T03:43:23.258Z,6.04
2018-12-26T03:44:23.222Z,6.04
2018-12-26T03:45:23.295Z,6.04
2018-12-26T03:46:23.241Z,6.07
2018-12-26T03:47:23.199Z,6.04
2018-12-26T03:48:23.181Z,6.04
2018-12-26T03:49:23.223Z,5.95
2018-12-26T03:50:23.186Z,6.04
2018-12-26T03:51:23.251Z,6.01
2018-12-26T03:52:23.164Z,6.06
2018-12-26T03:53:23.134Z,6.00
2018-12-26T03:54:23.140Z,5.91
2018-12-26T03:55:23.114Z,6.07
2018-12-26T03:56:23.095Z,6.04
2018-12-26T03:57:23.110Z,6.07
2018-12-26T03:58:23.082Z,6.07
2018-12-26T03:59:23.108Z,6.03
2018-12-26T04:00:23.068Z,6.06
2018-12-26T04:01:23.045Z,6.07
2018-12-26T04:02:23.036Z,6.04
2018-12-26T04:03:23.042Z,6.06
2018-12-26T04:04:23.050Z,6.01
2018-12-26T04:05:23.000Z,6.04
2018-12-26T04:06:23.042Z,6.06
2018-12-26T04:07:22.989Z,6.07
2018-12-26T04:08:22.988Z,6.04
2018-12-26T04:09:22.988Z,6.04
2018-12-26T04:10:22.958Z,6.06
2018-12-26T04:11:22.940Z,6.04
2018-12-26T04:12:22.923Z,6.06
2018-12-26T04:13:22.922Z,6.01
2018-12-26T04:14:22.921Z,6.04
2018-12-26T04:15:22.886Z,6.00
2018-12-26T04:16:22.871Z,6.06
2018-12-26T04:17:22.889Z,6.03
2018-12-26T04:18:22.871Z,6.06
2018-12-26T04:19:22.861Z,6.00
2018-12-26T04:20:22.845Z,6.04
2018-12-26T04:21:22.826Z,6.09
2018-12-26T04:22:22.832Z,6.13
2018-12-26T04:23:22.829Z,6.11
2018-12-26T04:24:22.809Z,6.07
2018-12-26T04:25:22.792Z,6.03
2018-12-26T04:26:22.780Z,6.09
2018-12-26T04:27:22.780Z,6.03
2018-12-26T04:28:22.758Z,6.04
2018-12-26T04:29:22.745Z,6.06
2018-12-26T04:30:22.778Z,6.00
2018-12-26T04:31:22.726Z,6.00
2018-12-26T04:32:22.721Z,6.03
2018-12-26T04:33:22.743Z,6.06
2018-12-26T04:34:22.686Z,6.04
2018-12-26T04:35:22.703Z,6.03
2018-12-26T04:36:22.684Z,6.06
2018-12-26T04:37:22.649Z,6.04
2018-12-26T04:38:22.677Z,5.98
2018-12-26T04:39:22.636Z,6.04
2018-12-26T04:40:22.625Z,6.06
2018-12-26T04:41:22.662Z,6.06
2018-12-26T04:42:22.612Z,6.01
2018-12-26T04:43:22.590Z,6.00
2018-12-26T04:44:22.608Z,6.00
2018-12-26T04:45:22.562Z,5.98
2018-12-26T04:46:22.550Z,6.01
2018-12-26T04:47:22.546Z,6.03
2018-12-26T04:48:22.550Z,5.95
2018-12-26T04:49:23.866Z,6.00
2018-12-26T04:50:22.528Z,5.96
2018-12-26T04:51:22.499Z,6.03
2018-12-26T04:52:22.500Z,6.01
2018-12-26T04:53:22.482Z,6.01
2018-12-26T04:54:22.473Z,5.93
2018-12-26T04:55:22.495Z,5.98
2018-12-26T04:56:22.470Z,5.95
2018-12-26T04:57:24.966Z,5.95
2018-12-26T04:58:22.444Z,5.98
2018-12-26T04:59:22.414Z,5.92
2018-12-26T05:00:22.391Z,5.93
2018-12-26T05:01:22.433Z,6.03
2018-12-26T05:02:22.385Z,6.01
2018-12-26T05:03:22.372Z,5.93
2018-12-26T05:04:22.384Z,6.04
2018-12-26T05:05:22.352Z,5.83
2018-12-26T05:06:22.363Z,5.81
2018-12-26T05:07:22.343Z,5.82
2018-12-26T05:08:22.329Z,5.91
2018-12-26T05:09:22.307Z,5.91
2018-12-26T05:10:22.348Z,5.88
2018-12-26T05:11:22.294Z,5.89
2018-12-26T05:12:22.276Z,5.89
2018-12-26T05:13:22.276Z,5.86
2018-12-26T05:14:22.318Z,5.89
2018-12-26T05:15:22.248Z,5.78
2018-12-26T05:16:22.263Z,5.82
2018-12-26T05:17:22.229Z,5.81
2018-12-26T05:18:22.206Z,5.82
2018-12-26T05:19:22.193Z,5.85
2018-12-26T05:20:22.179Z,5.74
2018-12-26T05:21:22.175Z,5.75
2018-12-26T05:22:22.179Z,5.73
2018-12-26T05:23:22.168Z,5.75
2018-12-26T05:24:22.142Z,5.73
2018-12-26T05:25:22.141Z,5.77
2018-12-26T05:26:22.122Z,5.78
2018-12-26T05:27:22.139Z,5.81
2018-12-26T05:28:22.104Z,5.73
2018-12-26T05:29:22.076Z,5.75
2018-12-26T05:30:22.067Z,5.82
2018-12-26T05:31:22.058Z,5.75
2018-12-26T05:32:22.074Z,5.78
2018-12-26T05:33:22.057Z,5.73
2018-12-26T05:34:22.036Z,5.77
2018-12-26T05:35:22.035Z,5.74
2018-12-26T05:36:22.025Z,5.81
2018-12-26T05:37:22.017Z,5.77
2018-12-26T05:38:22.145Z,5.74
2018-12-26T05:39:21.981Z,5.73
2018-12-26T05:40:21.980Z,5.77
2018-12-26T05:41:21.979Z,5.71
2018-12-26T05:42:21.957Z,5.78
2018-12-26T05:43:21.923Z,5.78
2018-12-26T05:44:21.918Z,5.74
2018-12-26T05:45:21.984Z,5.74
2018-12-26T05:46:21.908Z,5.73
2018-12-26T05:47:21.922Z,5.73
2018-12-26T05:48:21.884Z,5.71
2018-12-26T05:49:21.863Z,5.74
2018-12-26T05:50:21.856Z,5.70
2018-12-26T05:51:21.840Z,5.68
2018-12-26T05:52:21.848Z,5.64
2018-12-26T05:53:21.865Z,5.73
2018-12-26T05:54:21.826Z,5.67
2018-12-26T05:55:21.827Z,5.68
2018-12-26T05:56:21.808Z,5.59
2018-12-26T05:57:21.788Z,5.63
2018-12-26T05:58:21.779Z,5.57
2018-12-26T05:59:21.796Z,5.56
2018-12-26T06:00:21.755Z,5.56
2018-12-26T06:01:21.727Z,5.59
2018-12-26T06:02:21.730Z,5.59
2018-12-26T06:03:21.713Z,5.60
2018-12-26T06:04:21.719Z,5.56
2018-12-26T06:05:21.702Z,5.60
2018-12-26T06:06:21.699Z,5.57
2018-12-26T06:07:21.682Z,5.56
2018-12-26T06:08:21.660Z,5.60
2018-12-26T06:09:21.680Z,5.52
2018-12-26T06:10:21.633Z,5.48
2018-12-26T06:11:21.641Z,5.57
2018-12-26T06:12:22.587Z,5.43
2018-12-26T06:13:21.628Z,5.48
2018-12-26T06:14:21.625Z,5.53
2018-12-26T06:15:21.581Z,5.55
2018-12-26T06:16:21.569Z,5.49
2018-12-26T06:17:21.583Z,5.50
2018-12-26T06:18:21.588Z,5.52
2018-12-26T06:19:21.547Z,5.50
2018-12-26T06:20:21.535Z,5.53
2018-12-26T06:21:21.527Z,5.52
2018-12-26T06:22:21.504Z,5.50
2018-12-26T06:23:21.493Z,5.43
2018-12-26T06:24:21.509Z,5.45
2018-12-26T06:25:21.488Z,5.40
2018-12-26T06:26:21.494Z,5.38
2018-12-26T06:27:21.463Z,5.37
2018-12-26T06:28:21.452Z,5.40
2018-12-26T06:29:21.448Z,5.37
2018-12-26T06:30:21.424Z,5.37
2018-12-26T06:31:21.430Z,5.41
2018-12-26T06:32:21.407Z,5.41
2018-12-26T06:33:21.405Z,5.43
2018-12-26T06:34:21.387Z,5.35
2018-12-26T06:35:21.415Z,5.43
2018-12-26T06:36:21.352Z,5.31
2018-12-26T06:37:21.366Z,5.35
2018-12-26T06:38:21.338Z,5.31
2018-12-26T06:39:21.346Z,5.37
2018-12-26T06:40:21.324Z,5.32
2018-12-26T06:41:21.330Z,5.32
2018-12-26T06:42:21.288Z,5.32
2018-12-26T06:43:21.301Z,5.28
2018-12-26T06:44:21.278Z,5.35
2018-12-26T06:45:21.274Z,5.27
2018-12-26T06:46:21.253Z,5.30
2018-12-26T06:47:21.253Z,5.30
2018-12-26T06:48:21.224Z,5.23
2018-12-26T06:49:21.227Z,5.35
2018-12-26T06:50:21.210Z,5.28
2018-12-26T06:51:21.198Z,5.27
2018-12-26T06:52:21.217Z,5.22
2018-12-26T06:53:21.172Z,5.30
2018-12-26T06:54:21.164Z,5.22
2018-12-26T06:55:21.144Z,5.23
2018-12-26T06:56:21.142Z,5.19
2018-12-26T06:57:21.157Z,5.25
2018-12-26T06:58:21.116Z,5.20
2018-12-26T06:59:21.096Z,5.27
2018-12-26T07:00:21.098Z,5.27
2018-12-26T07:01:21.096Z,5.23
2018-12-26T07:02:21.102Z,5.20
2018-12-26T07:03:21.068Z,5.25
2018-12-26T07:04:21.061Z,5.20
2018-12-26T07:05:21.035Z,5.14
2018-12-26T07:06:21.037Z,5.19
2018-12-26T07:07:21.049Z,5.20
2018-12-26T07:08:21.023Z,5.28
2018-12-26T07:09:21.009Z,5.13
2018-12-26T07:10:20.995Z,5.20
2018-12-26T07:11:20.983Z,5.14
2018-12-26T07:12:20.973Z,5.25
2018-12-26T07:13:20.969Z,5.25
2018-12-26T07:14:20.936Z,5.23
2018-12-26T07:15:20.946Z,5.20
2018-12-26T07:16:20.931Z,5.27
2018-12-26T07:17:20.906Z,5.20
2018-12-26T07:18:20.915Z,5.22
2018-12-26T07:19:20.906Z,5.20
2018-12-26T07:20:20.873Z,5.19
2018-12-26T07:21:20.885Z,5.20
2018-12-26T07:22:20.881Z,5.16
2018-12-26T07:23:21.294Z,5.23
2018-12-26T07:24:20.841Z,5.14
2018-12-26T07:25:20.827Z,5.17
2018-12-26T07:26:20.810Z,5.20
2018-12-26T07:27:20.814Z,5.22
2018-12-26T07:28:20.818Z,5.22
2018-12-26T07:29:20.833Z,5.22
2018-12-26T07:30:20.778Z,5.27
2018-12-26T07:31:20.756Z,5.19
2018-12-26T07:32:20.746Z,5.27
2018-12-26T07:33:20.805Z,5.23
2018-12-26T07:34:20.731Z,5.30
2018-12-26T07:35:20.742Z,5.32
2018-12-26T07:36:20.750Z,5.31
2018-12-26T07:37:20.705Z,5.34
2018-12-26T07:38:20.679Z,5.34
2018-12-26T07:39:20.683Z,5.30
2018-12-26T07:40:20.658Z,5.32
2018-12-26T07:41:21.675Z,5.41
2018-12-26T07:42:20.643Z,5.30
2018-12-26T07:43:20.659Z,5.38
2018-12-26T07:44:20.630Z,5.38
2018-12-26T07:45:20.601Z,5.41
2018-12-26T07:46:20.635Z,5.37
2018-12-26T07:47:20.602Z,5.35
2018-12-26T07:48:20.576Z,5.40
2018-12-26T07:49:20.565Z,5.41
2018-12-26T07:50:20.567Z,5.41
2018-12-26T07:51:20.535Z,5.40
2018-12-26T07:52:20.554Z,5.40
2018-12-26T07:53:20.548Z,5.45
2018-12-26T07:54:20.781Z,5.45
2018-12-26T07:55:20.505Z,5.50
2018-12-26T07:56:20.499Z,5.41
2018-12-26T07:57:20.493Z,5.46
2018-12-26T07:58:20.479Z,5.52
2018-12-26T07:59:20.444Z,5.55
2018-12-26T08:00:20.460Z,5.40
2018-12-26T08:01:20.435Z,5.48
2018-12-26T08:02:20.442Z,5.52
2018-12-26T08:03:20.437Z,5.41
2018-12-26T08:04:20.395Z,5.48
2018-12-26T08:05:20.393Z,5.55
2018-12-26T08:06:20.398Z,5.46
2018-12-26T08:07:20.375Z,5.45
2018-12-26T08:08:20.386Z,5.38
2018-12-26T08:09:20.385Z,5.41
2018-12-26T08:10:20.337Z,5.46
2018-12-26T08:11:20.342Z,5.50
2018-12-26T08:12:20.330Z,5.55
2018-12-26T08:13:20.308Z,5.56
2018-12-26T08:14:20.323Z,5.46
2018-12-26T08:15:20.315Z,5.49
2018-12-26T08:16:20.281Z,5.50
2018-12-26T08:17:20.257Z,5.43
2018-12-26T08:18:20.246Z,5.52
2018-12-26T08:19:20.278Z,5.49
2018-12-26T08:20:20.242Z,5.49
2018-12-26T08:21:20.214Z,5.53
2018-12-26T08:22:20.216Z,5.52
2018-12-26T08:23:20.197Z,5.55
2018-12-26T08:24:20.178Z,5.52
2018-12-26T08:25:20.207Z,5.43
2018-12-26T08:26:20.189Z,5.49
2018-12-26T08:27:20.158Z,5.55
2018-12-26T08:28:26.625Z,5.46
2018-12-26T08:29:21.117Z,5.50
2018-12-26T08:30:20.173Z,5.53
2018-12-26T08:31:20.105Z,5.50
2018-12-26T08:32:20.090Z,5.52
2018-12-26T08:33:20.101Z,5.50
2018-12-26T08:34:20.082Z,5.52
2018-12-26T08:35:20.086Z,5.52
2018-12-26T08:36:20.046Z,5.48
2018-12-26T08:37:20.056Z,5.52
2018-12-26T08:38:20.031Z,5.50
2018-12-26T08:39:20.013Z,5.55
2018-12-26T08:40:20.023Z,5.55
2018-12-26T08:41:19.998Z,5.52
2018-12-26T08:42:20.021Z,5.57
2018-12-26T08:43:19.996Z,5.52
2018-12-26T08:44:19.969Z,5.45
2018-12-26T08:45:20.002Z,5.46
2018-12-26T08:46:19.959Z,5.56
2018-12-26T08:47:19.944Z,5.53
2018-12-26T08:48:19.937Z,5.46
2018-12-26T08:49:19.900Z,5.52
2018-12-26T08:50:19.941Z,5.45
2018-12-26T08:51:19.897Z,5.52
2018-12-26T08:52:19.891Z,5.50
2018-12-26T08:53:19.863Z,5.52
2018-12-26T08:54:19.867Z,5.48
2018-12-26T08:55:19.840Z,5.52
2018-12-26T08:56:19.847Z,5.52
2018-12-26T08:57:19.830Z,5.50
2018-12-26T08:58:19.828Z,5.48
2018-12-26T08:59:19.821Z,5.50
2018-12-26T09:00:19.807Z,5.49
2018-12-26T09:01:19.799Z,5.50
2018-12-26T09:02:19.767Z,5.48
2018-12-26T09:03:19.758Z,5.55
2018-12-26T09:04:19.749Z,5.53
2018-12-26T09:05:19.741Z,5.50
2018-12-26T09:06:19.736Z,5.55
2018-12-26T09:07:19.707Z,5.48
2018-12-26T09:08:19.699Z,5.55
2018-12-26T09:09:19.708Z,5.52
2018-12-26T09:10:19.694Z,5.55
2018-12-26T09:11:19.711Z,5.56
2018-12-26T09:12:19.678Z,5.49
2018-12-26T09:13:19.684Z,5.52
2018-12-26T09:14:19.636Z,5.53
2018-12-26T09:15:19.627Z,5.50
2018-12-26T09:16:19.627Z,5.50
2018-12-26T09:17:19.647Z,5.53
2018-12-26T09:18:19.611Z,5.56
2018-12-26T09:19:19.616Z,5.53
2018-12-26T09:20:19.581Z,5.56
2018-12-26T09:21:19.560Z,5.55
2018-12-26T09:22:19.565Z,5.55
2018-12-26T09:23:19.555Z,5.57
2018-12-26T09:24:19.548Z,5.64
2018-12-26T09:25:19.523Z,5.53
2018-12-26T09:26:19.515Z,5.66
2018-12-26T09:27:19.516Z,5.63
2018-12-26T09:28:19.490Z,5.63
2018-12-26T09:29:19.485Z,5.63
2018-12-26T09:30:19.470Z,5.56
2018-12-26T09:31:19.452Z,5.59
2018-12-26T09:32:19.475Z,5.53
2018-12-26T09:33:19.435Z,5.64
2018-12-26T09:34:19.429Z,5.59
2018-12-26T09:35:20.926Z,5.64
2018-12-26T09:36:19.396Z,5.64
2018-12-26T09:37:19.454Z,5.56
2018-12-26T09:38:19.382Z,5.55
2018-12-26T09:39:19.391Z,5.57
2018-12-26T09:40:19.353Z,5.63
2018-12-26T09:41:19.391Z,5.57
2018-12-26T09:42:19.370Z,5.60
2018-12-26T09:43:19.428Z,5.56
2018-12-26T09:44:19.311Z,5.60
2018-12-26T09:45:19.460Z,5.63
2018-12-26T09:46:19.292Z,5.64
2018-12-26T09:47:19.313Z,5.57
2018-12-26T09:48:19.259Z,5.59
2018-12-26T09:49:19.333Z,5.56
2018-12-26T09:50:19.256Z,5.57
2018-12-26T09:51:19.257Z,5.70
2018-12-26T09:52:19.233Z,5.63
2018-12-26T09:53:19.254Z,5.67
2018-12-26T09:54:19.198Z,5.67
2018-12-26T09:55:19.202Z,5.60
2018-12-26T09:56:19.198Z,5.70
2018-12-26T09:57:19.176Z,5.74
2018-12-26T09:58:19.159Z,5.70
2018-12-26T09:59:19.166Z,5.78
2018-12-26T10:00:19.144Z,5.77
2018-12-26T10:01:19.131Z,5.70
2018-12-26T10:02:19.117Z,5.78
2018-12-26T10:03:19.142Z,5.78
2018-12-26T10:04:19.101Z,5.77
2018-12-26T10:05:19.091Z,5.82
2018-12-26T10:06:19.086Z,5.75
2018-12-26T10:07:19.078Z,5.71
2018-12-26T10:08:19.049Z,5.66
2018-12-26T10:09:19.050Z,5.78
2018-12-26T10:10:19.036Z,5.77
2018-12-26T10:11:19.030Z,5.71
2018-12-26T10:12:19.011Z,5.78
2018-12-26T10:13:19.005Z,5.73
2018-12-26T10:14:18.995Z,5.75
2018-12-26T10:15:18.994Z,5.75
2018-12-26T10:16:18.988Z,5.77
2018-12-26T10:17:18.949Z,5.78
2018-12-26T10:18:18.937Z,5.74
2018-12-26T10:19:18.928Z,5.75
2018-12-26T10:20:18.924Z,5.78
2018-12-26T10:21:18.953Z,5.77
2018-12-26T10:22:18.913Z,5.75
2018-12-26T10:23:18.889Z,5.74
2018-12-26T10:24:18.891Z,5.74
2018-12-26T10:25:18.863Z,5.75
2018-12-26T10:26:18.865Z,5.73
2018-12-26T10:27:18.871Z,5.74
2018-12-26T10:28:18.847Z,5.75
2018-12-26T10:29:18.814Z,5.71
2018-12-26T10:30:18.802Z,5.74
2018-12-26T10:31:18.794Z,5.81
2018-12-26T10:32:18.810Z,5.75
2018-12-26T10:33:18.781Z,5.77
2018-12-26T10:34:18.787Z,5.71
2018-12-26T10:35:18.762Z,5.70
2018-12-26T10:36:18.763Z,5.77
2018-12-26T10:37:18.767Z,5.77
2018-12-26T10:38:18.739Z,5.75
2018-12-26T10:39:18.713Z,5.78
2018-12-26T10:40:18.696Z,5.82
2018-12-26T10:41:18.704Z,5.78
2018-12-26T10:42:18.706Z,5.77
2018-12-26T10:43:18.666Z,5.71
2018-12-26T10:44:18.657Z,5.83
2018-12-26T10:45:18.669Z,5.86
2018-12-26T10:46:18.637Z,5.82
2018-12-26T10:47:18.634Z,5.83
2018-12-26T10:48:18.619Z,5.91
2018-12-26T10:49:18.608Z,5.96
2018-12-26T10:50:18.613Z,5.96
2018-12-26T10:51:18.598Z,5.85
2018-12-26T10:52:18.600Z,5.88
2018-12-26T10:53:18.551Z,5.88
2018-12-26T10:54:18.538Z,6.06
2018-12-26T10:55:18.555Z,6.03
2018-12-26T10:56:18.575Z,6.03
2018-12-26T10:57:18.526Z,6.03
2018-12-26T10:58:18.542Z,5.98
2018-12-26T10:59:18.486Z,5.92
2018-12-26T11:00:18.482Z,5.96
2018-12-26T11:01:18.487Z,5.86
2018-12-26T11:02:18.465Z,5.86
2018-12-26T11:03:18.475Z,6.01
2018-12-26T11:04:18.446Z,5.89
2018-12-26T11:05:18.426Z,5.88
2018-12-26T11:06:18.409Z,5.88
2018-12-26T11:07:18.399Z,6.01
2018-12-26T11:08:18.406Z,5.96
2018-12-26T11:09:18.383Z,6.01
2018-12-26T11:10:18.371Z,5.98
2018-12-26T11:11:18.376Z,5.92
2018-12-26T11:12:18.357Z,5.96
2018-12-26T11:13:18.357Z,6.03
2018-12-26T11:14:18.326Z,6.01
2018-12-26T11:15:18.363Z,5.96
2018-12-26T11:16:18.354Z,5.95
2018-12-26T11:17:18.313Z,5.95
2018-12-26T11:18:18.316Z,5.93
2018-12-26T11:19:18.270Z,5.93
2018-12-26T11:20:18.274Z,6.00
2018-12-26T11:21:18.256Z,6.00
2018-12-26T11:22:18.248Z,5.96
2018-12-26T11:23:18.233Z,5.93
2018-12-26T11:24:18.243Z,5.93
2018-12-26T11:25:18.208Z,5.96
2018-12-26T11:26:18.194Z,5.96
2018-12-26T11:27:18.191Z,5.88
2018-12-26T11:28:18.177Z,5.91
2018-12-26T11:29:18.789Z,5.93
2018-12-26T11:30:18.161Z,5.95
2018-12-26T11:31:18.144Z,5.98
2018-12-26T11:32:18.142Z,5.98
2018-12-26T11:33:18.129Z,5.96
2018-12-26T11:34:18.137Z,5.95
2018-12-26T11:35:18.102Z,6.03
2018-12-26T11:36:18.222Z,5.88
2018-12-26T11:37:18.076Z,5.88
2018-12-26T11:38:18.089Z,5.77
2018-12-26T11:39:18.066Z,5.88
2018-12-26T11:40:18.041Z,5.91
2018-12-26T11:41:18.067Z,5.92
2018-12-26T11:42:18.053Z,5.88
2018-12-26T11:43:18.023Z,5.89
2018-12-26T11:44:18.002Z,5.83
2018-12-26T11:45:17.999Z,5.88
2018-12-26T11:46:17.974Z,5.85
2018-12-26T11:47:17.981Z,5.89
2018-12-26T11:48:17.959Z,5.88
2018-12-26T11:49:17.966Z,5.91
2018-12-26T11:50:17.953Z,5.77
2018-12-26T11:51:17.956Z,5.86
2018-12-26T11:52:17.917Z,5.86
2018-12-26T11:53:17.908Z,5.89
2018-12-26T11:54:17.899Z,5.86
2018-12-26T11:55:17.899Z,5.89
2018-12-26T11:56:17.920Z,5.86
2018-12-26T11:57:17.859Z,5.86
2018-12-26T11:58:17.847Z,5.85
2018-12-26T11:59:17.842Z,5.83
2018-12-26T12:00:17.824Z,5.83
2018-12-26T12:01:17.825Z,5.91
2018-12-26T12:02:20.644Z,5.88
2018-12-26T12:03:17.787Z,5.88
2018-12-26T12:04:17.797Z,5.88
2018-12-26T12:05:17.778Z,5.86
2018-12-26T12:06:17.772Z,5.85
2018-12-26T12:07:17.792Z,5.91
2018-12-26T12:08:17.748Z,5.81
2018-12-26T12:09:17.732Z,5.91
2018-12-26T12:10:17.715Z,5.82
2018-12-26T12:11:17.718Z,5.86
2018-12-26T12:12:17.702Z,5.91
2018-12-26T12:13:17.720Z,5.85
2018-12-26T12:14:17.689Z,5.93
2018-12-26T12:15:17.685Z,5.83
2018-12-26T12:16:17.662Z,5.88
2018-12-26T12:17:17.640Z,5.85
2018-12-26T12:18:17.663Z,5.82
2018-12-26T12:19:17.635Z,5.83
2018-12-26T12:20:17.618Z,5.92
2018-12-26T12:21:17.602Z,5.85
2018-12-26T12:22:17.585Z,5.83
2018-12-26T12:23:17.593Z,5.88
2018-12-26T12:24:17.563Z,5.88
2018-12-26T12:25:17.561Z,5.85
2018-12-26T12:26:17.555Z,5.98
2018-12-26T12:27:17.541Z,5.89
2018-12-26T12:28:17.548Z,5.89
2018-12-26T12:29:17.508Z,6.00
2018-12-26T12:30:17.527Z,5.96
2018-12-26T12:31:17.485Z,6.06
2018-12-26T12:32:17.485Z,6.06
2018-12-26T12:33:17.475Z,5.98
2018-12-26T12:34:17.479Z,6.00
2018-12-26T12:35:17.471Z,5.96
2018-12-26T12:36:17.439Z,6.03
2018-12-26T12:37:17.434Z,6.00
2018-12-26T12:38:17.416Z,5.98
2018-12-26T12:39:17.424Z,5.92
2018-12-26T12:40:17.392Z,5.93
2018-12-26T12:41:17.385Z,6.00
2018-12-26T12:42:17.379Z,5.96
2018-12-26T12:43:17.344Z,5.96
2018-12-26T12:44:17.366Z,6.06
2018-12-26T12:45:17.335Z,6.01
2018-12-26T12:46:17.333Z,6.01
2018-12-26T12:47:17.313Z,5.92
2018-12-26T12:48:17.307Z,5.95
2018-12-26T12:49:17.298Z,5.98
2018-12-26T12:50:17.306Z,5.96
2018-12-26T12:51:17.277Z,5.98
2018-12-26T12:52:17.270Z,6.01
2018-12-26T12:53:17.258Z,6.00
2018-12-26T12:54:17.259Z,5.92
2018-12-26T12:55:17.252Z,5.95
2018-12-26T12:56:17.217Z,6.07
2018-12-26T12:57:17.211Z,6.00
2018-12-26T12:58:17.208Z,6.03
2018-12-26T12:59:17.249Z,5.98
2018-12-26T13:00:17.183Z,5.91
2018-12-26T13:01:17.159Z,5.98
2018-12-26T13:02:17.799Z,5.98
2018-12-26T13:03:17.143Z,6.03
2018-12-26T13:04:17.129Z,5.92
2018-12-26T13:05:17.141Z,6.03
2018-12-26T13:06:17.109Z,5.89
2018-12-26T13:07:17.095Z,5.98
2018-12-26T13:08:17.077Z,6.03
2018-12-26T13:09:17.092Z,5.96
2018-12-26T13:10:17.096Z,5.98
2018-12-26T13:11:17.053Z,5.91
2018-12-26T13:12:17.039Z,6.01
2018-12-26T13:13:17.025Z,6.03
2018-12-26T13:14:17.015Z,6.09
2018-12-26T13:15:17.034Z,5.96
2018-12-26T13:16:16.997Z,6.01
2018-12-26T13:17:16.993Z,5.93
2018-12-26T13:18:16.978Z,5.96